Time;durP1;ratioP1;P1;durP2;ratioP2;P2;SDS_P1;SDS_P2;PMS_P1;PMS_P2;Temp;Humidity;BMP_temperature;BMP_pressure;BME280_temperature;BME280_humidity;BME280_pressure;Samples;Min_cycle;Max_cycle;Signal;HPM_P1;HPM_P2
2021/01/06 00:02:26;;;;;;;59.20;25.90;;;6.50;99.90;;;;;;6122428;23;20010;-86
2021/01/06 00:05:39;;;;;;;64.00;26.15;;;6.60;99.90;;;;;;6122357;23;20032;-87
2021/01/06 00:08:28;;;;;;;58.83;26.80;;;6.40;99.90;;;;;;6112107;23;20037;-86
2021/01/06 00:11:17;;;;;;;53.10;27.08;;;6.40;99.90;;;;;;6124808;23;20006;-85
2021/01/06 00:13:46;;;;;;;65.25;25.38;;;6.50;99.90;;;;;;6122117;23;20014;-83
2021/01/06 00:16:15;;;;;;;81.22;29.50;;;6.50;99.90;;;;;;6123560;23;20057;-85
2021/01/06 00:18:41;;;;;;;70.60;28.40;;;6.20;99.90;;;;;;6122690;23;20010;-87
2021/01/06 00:24:41;;;;;;;73.57;29.35;;;6.30;99.90;;;;;;6124723;23;20013;-88
2021/01/06 00:31:20;;;;;;;65.82;27.67;;;6.40;99.90;;;;;;6124777;23;20033;-90
2021/01/06 00:49:05;;;;;;;72.43;26.45;;;6.50;99.90;;;;;;6182917;23;20052;-89
2021/01/06 01:08:18;;;;;;;74.30;29.10;;;6.20;99.90;;;;;;6179223;23;20027;-89
2021/01/06 01:14:19;;;;;;;70.78;29.60;;;6.10;99.90;;;;;;6179689;23;20032;-86
2021/01/06 01:16:46;;;;;;;78.20;31.83;;;6.30;99.90;;;;;;6157296;23;20005;-87
2021/01/06 01:19:12;;;;;;;70.28;29.75;;;6.30;99.90;;;;;;6157329;23;20004;-87
2021/01/06 01:22:22;;;;;;;66.43;27.30;;;6.30;99.90;;;;;;6156778;23;20001;-90
2021/01/06 01:24:50;;;;;;;72.45;29.20;;;6.30;99.90;;;;;;6156278;23;20435;-88
2021/01/06 01:27:28;;;;;;;73.57;28.23;;;6.30;99.90;;;;;;6156332;23;20009;-84
2021/01/06 01:33:56;;;;;;;76.38;29.25;;;6.30;99.90;;;;;;6182548;23;20430;-86
2021/01/06 01:39:45;;;;;;;71.45;28.10;;;6.00;99.90;;;;;;6034479;23;20046;-86
2021/01/06 01:42:25;;;;;;;65.82;25.58;;;6.10;99.90;;;;;;6011068;23;20382;-87
2021/01/06 01:45:08;;;;;;;;;;;6.00;99.90;;;;;;6012305;23;20037;-86
2021/01/06 01:48:18;;;;;;;71.38;26.55;;;6.10;99.90;;;;;;6064598;23;19908;-86
2021/01/06 01:50:45;;;;;;;63.63;26.15;;;6.10;99.90;;;;;;6128736;23;20028;-83
2021/01/06 01:53:19;;;;;;;72.40;27.42;;;5.90;99.90;;;;;;6159067;23;20009;-86
2021/01/06 01:55:50;;;;;;;68.95;27.80;;;6.00;99.90;;;;;;6158795;23;20001;-88
2021/01/06 01:58:27;;;;;;;74.10;27.30;;;6.10;99.90;;;;;;6185772;23;20445;-87
2021/01/06 02:00:55;;;;;;;67.40;25.67;;;6.00;99.90;;;;;;6185186;23;19993;-88
2021/01/06 02:03:57;;;;;;;59.00;26.08;;;5.90;99.90;;;;;;6186211;23;20327;-86
2021/01/06 02:06:53;;;;;;;65.43;25.83;;;5.80;99.90;;;;;;6159319;23;20005;-83
2021/01/06 02:09:29;;;;;;;58.50;24.00;;;5.90;99.90;;;;;;6159328;23;20547;-84
2021/01/06 02:12:16;;;;;;;68.55;27.42;;;5.60;99.90;;;;;;6185514;23;20001;-82
2021/01/06 02:15:03;;;;;;;58.47;26.45;;;5.90;99.90;;;;;;6184931;23;20013;-86
2021/01/06 02:17:29;;;;;;;64.28;24.38;;;6.00;99.90;;;;;;6159053;23;20060;-86
2021/01/06 02:20:14;;;;;;;64.35;26.17;;;5.90;99.90;;;;;;6158567;23;20005;-84
2021/01/06 02:22:39;;;;;;;60.55;24.50;;;6.00;99.90;;;;;;6159045;23;20008;-84
2021/01/06 02:25:20;;;;;;;59.20;25.90;;;6.00;99.90;;;;;;6158741;23;19997;-84
2021/01/06 02:27:46;;;;;;;63.30;25.35;;;6.10;99.90;;;;;;6158756;23;20098;-85
2021/01/06 02:30:14;;;;;;;66.55;26.35;;;6.10;99.90;;;;;;6158285;23;20075;-85
2021/01/06 02:32:40;;;;;;;68.80;24.48;;;6.20;99.90;;;;;;6158572;23;20060;-85
2021/01/06 02:35:11;;;;;;;67.72;26.83;;;6.20;99.90;;;;;;6158409;23;20386;-86
2021/01/06 02:37:37;;;;;;;;;;;6.10;99.90;;;;;;6185761;23;20032;-86
2021/01/06 02:40:07;;;;;;;82.80;25.67;;;6.00;99.90;;;;;;6158369;23;20254;-84
2021/01/06 02:42:38;;;;;;;103.63;30.25;;;5.50;99.90;;;;;;6185852;23;20074;-84
2021/01/06 02:45:10;;;;;;;72.03;27.38;;;5.10;99.90;;;;;;6158735;23;20005;-85
2021/01/06 02:47:37;;;;;;;75.45;28.35;;;5.10;99.90;;;;;;6158824;23;20005;-86
2021/01/06 02:50:07;;;;;;;67.60;26.27;;;5.50;99.90;;;;;;6185084;23;20036;-84
2021/01/06 02:52:48;;;;;;;75.30;29.80;;;5.60;99.90;;;;;;6185248;23;20056;-85
2021/01/06 02:55:14;;;;;;;;;;;5.60;99.90;;;;;;6185709;23;20032;-86
2021/01/06 02:57:43;;;;;;;81.20;26.35;;;5.70;99.90;;;;;;6158183;23;19923;-87
2021/01/06 03:00:15;;;;;;;78.68;26.88;;;5.80;99.90;;;;;;6158120;23;20032;-87
2021/01/06 03:02:42;;;;;;;75.53;30.27;;;5.90;99.90;;;;;;6159005;23;20012;-87
2021/01/06 03:05:55;;;;;;;;;;;;;;;;;;;;;
2021/01/06 03:15:46;;;;;;;71.25;27.55;;;5.60;99.90;;;;;;6183499;23;20059;-86
2021/01/06 03:18:15;;;;;;;75.82;26.45;;;5.90;99.90;;;;;;6187155;23;20055;-87
2021/01/06 03:20:46;;;;;;;75.80;27.58;;;5.90;99.90;;;;;;6186993;23;20044;-88
2021/01/06 03:23:39;;;;;;;73.60;27.25;;;6.00;99.90;;;;;;6158800;23;20012;-86
2021/01/06 03:26:14;;;;;;;77.32;28.20;;;6.00;99.90;;;;;;6158495;23;20431;-87
2021/01/06 03:28:49;;;;;;;66.00;28.27;;;6.00;99.90;;;;;;6158958;23;20013;-86
2021/01/06 03:31:43;;;;;;;74.18;28.85;;;6.00;99.90;;;;;;6158677;23;20324;-89
2021/01/06 03:34:39;;;;;;;71.75;27.38;;;6.10;99.90;;;;;;6159130;23;20036;-85
2021/01/06 03:37:11;;;;;;;71.78;26.52;;;6.20;99.90;;;;;;6159073;23;20012;-88
2021/01/06 03:39:49;;;;;;;71.32;27.48;;;6.10;99.90;;;;;;6159455;23;20107;-86
2021/01/06 03:42:19;;;;;;;71.55;27.10;;;6.20;99.90;;;;;;6159048;23;20032;-87
2021/01/06 03:44:46;;;;;;;70.28;27.25;;;6.20;99.90;;;;;;6159387;23;20339;-89
2021/01/06 03:47:12;;;;;;;64.65;27.92;;;6.10;99.90;;;;;;6185085;23;20001;-85
2021/01/06 03:50:00;;;;;;;63.13;24.58;;;6.20;99.90;;;;;;6159126;23;20084;-86
2021/01/06 03:53:03;;;;;;;58.65;25.50;;;6.20;99.90;;;;;;6158542;23;20005;-85
2021/01/06 03:55:41;;;;;;;60.30;25.60;;;6.20;99.90;;;;;;6158228;23;20019;-85
2021/01/06 03:58:35;;;;;;;58.47;26.08;;;6.20;99.90;;;;;;6158358;23;20009;-87
2021/01/06 04:01:51;;;;;;;71.80;26.50;;;6.10;99.90;;;;;;6157386;23;20001;-86
2021/01/06 04:04:31;;;;;;;69.95;26.40;;;6.20;99.90;;;;;;6184648;23;19997;-87
2021/01/06 04:07:14;;;;;;;;;;;6.20;99.90;;;;;;6185220;23;20008;-87
2021/01/06 04:12:27;;;;;;;78.22;26.30;;;5.70;99.90;;;;;;6184139;23;20454;-87
2021/01/06 04:15:04;;;;;;;66.55;26.77;;;5.40;99.90;;;;;;6184538;23;20009;-86
2021/01/06 04:17:46;;;;;;;80.43;28.52;;;5.20;99.90;;;;;;6158356;23;20017;-87
2021/01/06 04:20:15;;;;;;;81.38;28.98;;;5.20;99.90;;;;;;6159263;23;20012;-86
2021/01/06 04:22:55;;;;;;;69.55;27.42;;;5.20;99.90;;;;;;6159905;23;20322;-91
2021/01/06 04:25:31;;;;;;;74.53;25.92;;;5.40;99.90;;;;;;6159965;23;20012;-89
2021/01/06 04:28:10;;;;;;;78.38;29.83;;;5.40;99.90;;;;;;6186617;23;20054;-90
2021/01/06 04:31:06;;;;;;;70.45;27.35;;;5.30;99.90;;;;;;6185062;23;20020;-86
2021/01/06 04:33:49;;;;;;;76.55;29.35;;;5.40;99.90;;;;;;6172621;23;20296;-86
2021/01/06 04:36:25;;;;;;;72.18;28.55;;;5.70;99.90;;;;;;6158301;23;20303;-85
2021/01/06 04:38:55;;;;;;;72.68;27.75;;;5.80;99.90;;;;;;6157883;23;20374;-86
2021/01/06 04:44:57;;;;;;;78.10;28.20;;;5.30;99.90;;;;;;6184865;23;20024;-86
2021/01/06 04:48:04;;;;;;;79.30;26.88;;;5.20;99.90;;;;;;6156844;23;20005;-84
2021/01/06 04:50:35;;;;;;;71.88;27.77;;;5.10;99.90;;;;;;6159949;23;20013;-89
2021/01/06 04:53:18;;;;;;;69.35;28.00;;;5.20;99.90;;;;;;6159162;23;20009;-86
2021/01/06 04:56:16;;;;;;;73.53;27.55;;;5.30;99.90;;;;;;6158552;23;20005;-84
2021/01/06 04:59:09;;;;;;;75.85;28.80;;;5.20;99.90;;;;;;6158241;23;20327;-86
2021/01/06 05:05:35;;;;;;;66.32;26.23;;;5.50;99.90;;;;;;6088736;23;20028;-87
2021/01/06 05:08:25;;;;;;;67.95;26.10;;;5.40;99.90;;;;;;6184111;23;20005;-86
2021/01/06 05:11:31;;;;;;;66.78;27.35;;;5.50;99.90;;;;;;6184424;23;20001;-88
2021/01/06 05:14:34;;;;;;;61.55;26.15;;;5.60;99.90;;;;;;6153222;23;20024;-84
2021/01/06 05:20:28;;;;;;;61.33;25.17;;;5.40;99.90;;;;;;6065575;23;20054;-88
2021/01/06 05:26:00;;;;;;;62.47;24.73;;;5.40;99.90;;;;;;6064424;23;20018;-87
2021/01/06 05:28:52;;;;;;;63.22;26.08;;;5.20;99.90;;;;;;6091954;23;20021;-87
2021/01/06 05:31:17;;;;;;;71.70;26.05;;;5.20;99.90;;;;;;6128777;23;20092;-87
2021/01/06 05:34:44;;;;;;;65.13;25.48;;;5.20;99.90;;;;;;6156056;23;20032;-87
2021/01/06 05:37:37;;;;;;;61.72;24.08;;;5.10;99.90;;;;;;6136394;23;19997;-84
2021/01/06 05:40:07;;;;;;;57.55;24.40;;;5.20;99.90;;;;;;6156005;23;20359;-83
2021/01/06 05:42:54;;;;;;;63.05;25.85;;;5.10;99.90;;;;;;6157566;23;20185;-83
2021/01/06 05:45:23;;;;;;;55.28;23.55;;;5.40;99.90;;;;;;6184120;23;20009;-84
2021/01/06 05:47:58;;;;;;;57.47;24.70;;;5.50;99.90;;;;;;6156954;23;20009;-84
2021/01/06 05:51:05;;;;;;;57.78;24.90;;;5.40;99.90;;;;;;6180875;23;20036;-84
2021/01/06 05:53:42;;;;;;;56.45;23.23;;;5.50;99.90;;;;;;6157523;23;20189;-87
2021/01/06 05:56:22;;;;;;;51.33;23.05;;;5.60;99.90;;;;;;6157567;23;20006;-87
2021/01/06 05:58:54;;;;;;;45.80;22.58;;;5.40;99.90;;;;;;6211714;23;20331;-85
2021/01/06 06:01:57;;;;;;;53.85;23.38;;;5.10;99.90;;;;;;6214254;23;20003;-87
2021/01/06 06:04:32;;;;;;;47.78;21.67;;;5.30;99.90;;;;;;6213335;23;20001;-86
2021/01/06 06:07:30;;;;;;;56.33;23.90;;;5.50;99.90;;;;;;6213888;23;20437;-87
2021/01/06 06:10:33;;;;;;;51.80;24.63;;;5.50;99.90;;;;;;6039692;23;20015;-87
2021/01/06 06:13:25;;;;;;;51.78;22.98;;;5.60;99.90;;;;;;6186973;23;20142;-87
2021/01/06 06:16:21;;;;;;;45.00;22.77;;;5.60;99.90;;;;;;6187921;23;20008;-87
2021/01/06 06:22:48;;;;;;;53.22;22.55;;;5.60;99.90;;;;;;6170646;23;20012;-85
2021/01/06 06:25:36;;;;;;;60.42;24.88;;;4.90;99.90;;;;;;6213645;23;20598;-85
2021/01/06 06:28:20;;;;;;;52.90;23.90;;;4.80;99.90;;;;;;6213526;23;20004;-86
2021/01/06 06:31:30;;;;;;;43.05;22.52;;;4.80;99.90;;;;;;6152328;23;20013;-89
2021/01/06 06:37:20;;;;;;;51.85;23.35;;;5.00;99.90;;;;;;6102656;23;20028;-86
2021/01/06 06:42:57;;;;;;;66.00;31.52;;;5.50;99.90;;;;;;6182089;23;20025;-81
2021/01/06 06:45:41;;;;;;;115.18;55.53;;;6.10;99.90;;;;;;6174229;23;20454;-79
2021/01/06 06:48:50;;;;;;;48.88;26.80;;;6.50;99.90;;;;;;6182900;23;20012;-81
2021/01/06 06:52:19;;;;;;;62.60;29.60;;;6.60;99.90;;;;;;6183171;23;20001;-84
2021/01/06 06:55:35;;;;;;;;;;;;;;;;;;;;;
2021/01/06 07:01:49;;;;;;;45.42;22.02;;;5.90;99.90;;;;;;6177993;23;20028;-84
2021/01/06 07:04:48;;;;;;;48.70;23.48;;;5.80;99.90;;;;;;6154604;23;20084;-82
2021/01/06 07:07:46;;;;;;;40.05;22.38;;;5.70;99.90;;;;;;6150963;23;20028;-82
2021/01/06 07:15:35;;;;;;;58.22;25.30;;;5.30;99.90;;;;;;6181399;23;20028;-82
2021/01/06 07:21:50;;;;;;;49.03;23.33;;;5.30;99.90;;;;;;6121981;23;20021;-81
2021/01/06 07:30:57;;;;;;;54.25;25.95;;;5.30;99.90;;;;;;6180037;23;20029;-79
2021/01/06 07:33:44;;;;;;;50.28;25.35;;;5.70;99.90;;;;;;6179312;23;20063;-83
2021/01/06 07:36:40;;;;;;;42.70;23.80;;;6.10;99.90;;;;;;6180182;23;20001;-84
2021/01/06 07:42:49;;;;;;;46.70;25.95;;;6.50;99.90;;;;;;6150029;23;20024;-85
2021/01/06 07:49:23;;;;;;;47.65;25.25;;;6.60;99.90;;;;;;6090252;23;20013;-84
2021/01/06 07:58:41;;;;;;;41.25;22.30;;;7.30;99.90;;;;;;6154971;23;20096;-86
2021/01/06 08:01:14;;;;;;;49.33;25.05;;;7.40;99.90;;;;;;6128798;23;20009;-86
2021/01/06 08:03:50;;;;;;;46.33;23.60;;;7.40;99.90;;;;;;6128251;23;20010;-84
2021/01/06 08:06:20;;;;;;;88.00;45.58;;;7.70;99.90;;;;;;6127215;23;20003;-84
2021/01/06 08:08:57;;;;;;;49.50;27.85;;;8.80;99.90;;;;;;6127462;23;20088;-83
2021/01/06 08:11:24;;;;;;;64.75;33.13;;;8.80;99.90;;;;;;6154107;23;20084;-86
2021/01/06 08:13:50;;;;;;;45.75;25.73;;;9.00;99.90;;;;;;6152649;23;20006;-86
2021/01/06 08:19:40;;;;;;;38.00;22.55;;;8.30;99.90;;;;;;6137988;23;20009;-86
2021/01/06 08:22:09;;;;;;;41.20;23.67;;;7.90;99.90;;;;;;6127624;23;20016;-87
2021/01/06 08:25:01;;;;;;;51.00;24.70;;;7.80;99.90;;;;;;6128820;23;20041;-85
2021/01/06 08:27:38;;;;;;;50.08;27.88;;;8.10;99.90;;;;;;6133512;23;20001;-89
2021/01/06 08:30:26;;;;;;;54.58;27.88;;;7.30;99.90;;;;;;6129092;23;20309;-90
2021/01/06 08:33:13;;;;;;;62.22;34.53;;;7.70;99.90;;;;;;6155924;23;20017;-88
2021/01/06 08:35:43;;;;;;;44.45;26.58;;;8.10;99.90;;;;;;6106550;23;20016;-86
2021/01/06 08:38:26;;;;;;;45.38;26.55;;;7.30;99.90;;;;;;6154093;23;20375;-81
2021/01/06 08:40:52;;;;;;;126.85;64.60;;;7.40;99.90;;;;;;6128273;23;20352;-87
2021/01/06 08:43:23;;;;;;;47.08;27.75;;;8.10;99.90;;;;;;6154422;23;20028;-86
2021/01/06 08:46:17;;;;;;;43.72;23.40;;;7.50;99.90;;;;;;6130984;23;20009;-86
2021/01/06 08:48:43;;;;;;;49.75;26.20;;;6.80;99.90;;;;;;6135295;23;20009;-85
2021/01/06 08:51:15;;;;;;;43.33;23.77;;;6.60;99.90;;;;;;6132481;23;20439;-87
2021/01/06 08:53:43;;;;;;;42.97;24.50;;;7.00;99.90;;;;;;6155527;23;20013;-84
2021/01/06 08:56:23;;;;;;;41.83;23.33;;;7.10;99.90;;;;;;6153598;23;20001;-85
2021/01/06 08:58:57;;;;;;;43.33;23.30;;;7.70;99.90;;;;;;6153836;23;19998;-84
2021/01/06 09:02:34;;;;;;;38.78;22.17;;;7.70;99.90;;;;;;6120852;23;20309;-84
2021/01/06 09:05:43;;;;;;;36.78;19.88;;;7.50;99.90;;;;;;6104818;23;20085;-83
2021/01/06 09:08:31;;;;;;;36.63;21.53;;;7.50;99.90;;;;;;6097419;23;20021;-86
2021/01/06 09:11:17;;;;;;;39.25;22.08;;;7.70;99.90;;;;;;6122639;23;20010;-85
2021/01/06 09:14:01;;;;;;;36.40;21.17;;;7.90;99.90;;;;;;6095714;23;20057;-87
2021/01/06 09:16:37;;;;;;;41.47;22.40;;;8.00;99.90;;;;;;6121783;23;20082;-85
2021/01/06 09:19:18;;;;;;;37.95;22.45;;;7.90;99.90;;;;;;6097572;23;20384;-86
2021/01/06 09:21:44;;;;;;;;;;;8.20;99.90;;;;;;6097756;23;20010;-85
2021/01/06 09:24:09;;;;;;;43.10;23.35;;;8.30;99.90;;;;;;6096379;23;19928;-87
2021/01/06 09:26:38;;;;;;;47.08;24.77;;;8.70;99.90;;;;;;6121732;23;20372;-87
2021/01/06 09:29:16;;;;;;;48.70;26.00;;;9.40;99.90;;;;;;6122049;23;20014;-86
2021/01/06 09:31:46;;;;;;;46.65;24.55;;;9.80;99.90;;;;;;6104610;23;20017;-85
2021/01/06 09:34:24;;;;;;;96.25;47.22;;;10.40;99.90;;;;;;6153938;23;20033;-88
2021/01/06 09:36:51;;;;;;;57.67;34.30;;;11.00;99.90;;;;;;6154054;23;20006;-84
2021/01/06 09:39:21;;;;;;;80.63;44.38;;;10.90;99.90;;;;;;6119188;23;20009;-84
2021/01/06 09:41:49;;;;;;;;;;;11.60;99.90;;;;;;6115282;23;20338;-85
2021/01/06 09:44:15;;;;;;;44.75;26.67;;;12.00;99.90;;;;;;6121987;23;19908;-85
2021/01/06 09:47:12;;;;;;;38.05;21.92;;;11.60;99.90;;;;;;6151143;23;20084;-86
2021/01/06 09:49:50;;;;;;;34.70;20.67;;;10.40;99.90;;;;;;6149547;23;20009;-83
2021/01/06 09:52:45;;;;;;;35.53;21.48;;;9.80;99.90;;;;;;6151680;23;20002;-86
2021/01/06 09:55:19;;;;;;;36.22;22.35;;;8.70;99.90;;;;;;6117212;23;20101;-85
2021/01/06 09:57:55;;;;;;;37.38;21.45;;;8.40;99.90;;;;;;6125398;23;20005;-81
2021/01/06 10:00:21;;;;;;;39.70;22.45;;;8.40;99.90;;;;;;6123305;23;20013;-82
2021/01/06 10:02:49;;;;;;;41.63;24.38;;;8.80;99.90;;;;;;6144843;23;20092;-85
2021/01/06 10:05:37;;;;;;;36.70;23.20;;;8.90;99.90;;;;;;6148875;23;20061;-83
2021/01/06 10:08:18;;;;;;;35.88;22.73;;;8.70;99.90;;;;;;6147963;23;20331;-86
2021/01/06 10:10:47;;;;;;;43.45;24.15;;;9.60;99.90;;;;;;6116213;23;20044;-86
2021/01/06 10:13:53;;;;;;;39.88;24.02;;;10.00;99.90;;;;;;6122302;23;20040;-86
2021/01/06 10:16:33;;;;;;;39.20;22.70;;;10.40;99.90;;;;;;6122930;23;20030;-85
2021/01/06 10:19:17;;;;;;;43.03;25.63;;;10.60;99.90;;;;;;6120905;23;20014;-84
2021/01/06 10:22:02;;;;;;;38.40;23.38;;;11.30;99.90;;;;;;6145458;23;20097;-85
2021/01/06 10:24:40;;;;;;;34.30;21.63;;;12.40;99.90;;;;;;6122884;23;20051;-83
2021/01/06 10:27:24;;;;;;;32.08;19.55;;;12.80;99.90;;;;;;6146047;23;20072;-85
2021/01/06 10:29:56;;;;;;;32.50;19.75;;;13.20;99.30;;;;;;6120722;23;20017;-85
2021/01/06 10:32:45;;;;;;;41.03;20.98;;;13.00;98.00;;;;;;6141927;23;20068;-85
2021/01/06 10:35:36;;;;;;;29.77;19.67;;;13.10;98.30;;;;;;6144353;23;20010;-86
2021/01/06 10:38:43;;;;;;;28.80;18.58;;;12.50;99.10;;;;;;6147174;23;20321;-82
2021/01/06 10:41:27;;;;;;;31.38;17.20;;;11.50;99.90;;;;;;6070851;23;20128;-82
2021/01/06 10:43:57;;;;;;;26.73;16.02;;;11.10;99.90;;;;;;6146281;23;20010;-84
2021/01/06 10:46:42;;;;;;;32.33;19.40;;;12.00;99.90;;;;;;6145996;23;20001;-86
2021/01/06 10:49:20;;;;;;;26.40;18.73;;;12.60;99.90;;;;;;6123504;23;20033;-87
2021/01/06 10:51:58;;;;;;;26.13;17.17;;;12.80;99.90;;;;;;6124297;23;20383;-85
2021/01/06 10:54:56;;;;;;;30.08;17.55;;;11.40;99.90;;;;;;6130630;23;20478;-85
2021/01/06 10:57:46;;;;;;;40.85;17.15;;;10.90;99.90;;;;;;6149831;23;20044;-87
2021/01/06 11:00:17;;;;;;;27.33;14.87;;;11.30;99.90;;;;;;6120825;23;20020;-87
2021/01/06 11:03:11;;;;;;;22.40;14.35;;;10.70;99.90;;;;;;6148443;23;20057;-86
2021/01/06 11:05:46;;;;;;;26.45;16.00;;;10.40;99.90;;;;;;6147221;23;20008;-86
2021/01/06 11:08:33;;;;;;;29.27;16.45;;;10.30;99.90;;;;;;6148001;23;20045;-86
2021/01/06 11:11:16;;;;;;;23.52;14.88;;;10.50;99.90;;;;;;6144340;23;20040;-87
2021/01/06 11:13:57;;;;;;;25.77;15.95;;;10.50;99.90;;;;;;6122596;23;20009;-84
2021/01/06 11:16:25;;;;;;;;;;;10.70;99.90;;;;;;6145383;23;20069;-85
2021/01/06 11:18:53;;;;;;;25.10;14.65;;;11.00;99.90;;;;;;6148625;23;19908;-85
2021/01/06 11:21:39;;;;;;;29.75;15.48;;;11.40;99.90;;;;;;6149419;23;20002;-89
2021/01/06 11:24:43;;;;;;;24.92;14.93;;;11.50;99.90;;;;;;6147431;23;20017;-83
2021/01/06 11:30:02;;;;;;;29.98;16.35;;;11.60;99.90;;;;;;6174962;23;20028;-86
2021/01/06 11:32:37;;;;;;;29.25;17.45;;;11.50;99.90;;;;;;6149611;23;19993;-87
2021/01/06 11:35:17;;;;;;;28.02;17.27;;;11.80;99.90;;;;;;6178638;23;20367;-87
2021/01/06 11:37:44;;;;;;;30.50;16.77;;;11.90;99.90;;;;;;6153945;23;20521;-89
2021/01/06 11:40:26;;;;;;;26.30;17.35;;;12.00;99.90;;;;;;6176782;23;20544;-87
2021/01/06 11:43:06;;;;;;;26.17;16.08;;;11.70;99.90;;;;;;6152463;23;20389;-84
2021/01/06 11:45:48;;;;;;;25.25;16.15;;;11.70;99.90;;;;;;6153833;23;20032;-86
2021/01/06 11:48:36;;;;;;;24.63;14.68;;;11.60;99.90;;;;;;6175654;23;20007;-86
2021/01/06 11:51:25;;;;;;;26.58;15.43;;;11.40;99.90;;;;;;6176796;23;20001;-82
2021/01/06 11:54:19;;;;;;;31.17;17.58;;;11.30;99.90;;;;;;6147447;23;20285;-84
2021/01/06 11:56:53;;;;;;;31.73;16.80;;;11.20;99.90;;;;;;6151383;23;20008;-84
2021/01/06 11:59:30;;;;;;;29.70;17.65;;;11.40;99.90;;;;;;6149203;23;20013;-85
2021/01/06 12:02:12;;;;;;;32.88;18.85;;;11.50;99.90;;;;;;6148428;23;20000;-82
2021/01/06 12:04:59;;;;;;;30.58;17.92;;;11.60;99.90;;;;;;6177610;23;19993;-83
2021/01/06 12:07:30;;;;;;;33.75;18.88;;;11.50;99.90;;;;;;6148676;23;20012;-86
2021/01/06 12:10:16;;;;;;;;;;;11.70;99.90;;;;;;6150401;23;20017;-85
2021/01/06 12:13:15;;;;;;;34.53;19.33;;;11.90;99.90;;;;;;6103418;23;19919;-89
2021/01/06 12:15:47;;;;;;;31.50;19.33;;;11.80;99.90;;;;;;6176939;23;20001;-86
2021/01/06 12:18:24;;;;;;;28.38;18.65;;;11.80;99.90;;;;;;6131386;23;20131;-86
2021/01/06 12:20:55;;;;;;;33.30;20.05;;;11.80;99.90;;;;;;6145510;23;20060;-84
2021/01/06 12:23:40;;;;;;;30.27;19.58;;;11.90;99.90;;;;;;6143875;23;20040;-86
2021/01/06 12:26:41;;;;;;;33.55;19.30;;;11.80;99.90;;;;;;6154810;23;20001;-84
2021/01/06 12:29:14;;;;;;;31.30;18.42;;;11.50;99.90;;;;;;6146394;23;20052;-84
2021/01/06 12:32:10;;;;;;;30.77;18.92;;;11.50;99.90;;;;;;6143086;23;20039;-83
2021/01/06 12:34:41;;;;;;;30.92;19.27;;;11.60;99.90;;;;;;6177615;23;19997;-85
2021/01/06 12:37:13;;;;;;;32.00;18.95;;;11.70;99.90;;;;;;6174447;23;19997;-85
2021/01/06 12:39:57;;;;;;;33.30;18.95;;;11.80;99.90;;;;;;6172776;23;20001;-85
2021/01/06 12:42:47;;;;;;;29.55;17.90;;;12.00;99.90;;;;;;6173049;23;20005;-83
2021/01/06 12:45:39;;;;;;;30.83;16.45;;;12.20;99.90;;;;;;6150658;23;20024;-87
2021/01/06 12:48:22;;;;;;;34.28;21.33;;;12.70;99.90;;;;;;6149294;23;20092;-84
2021/01/06 12:50:56;;;;;;;34.22;20.95;;;12.60;99.90;;;;;;6150143;23;20621;-85
2021/01/06 12:53:37;;;;;;;29.88;18.85;;;12.90;99.90;;;;;;6180807;23;20008;-85
2021/01/06 12:56:06;;;;;;;47.05;26.85;;;13.40;99.90;;;;;;6150439;23;20032;-85
2021/01/06 12:58:46;;;;;;;42.63;26.67;;;14.00;99.90;;;;;;6177801;23;20032;-88
2021/01/06 13:01:34;;;;;;;47.03;18.27;;;14.00;98.50;;;;;;6155459;23;20411;-86
2021/01/06 13:04:05;;;;;;;26.38;15.75;;;13.70;98.60;;;;;;6154860;23;20009;-85
2021/01/06 13:06:30;;;;;;;27.30;16.70;;;13.50;99.20;;;;;;6181114;23;20012;-83
2021/01/06 13:09:00;;;;;;;30.92;16.45;;;13.20;99.50;;;;;;6182418;23;20063;-84
2021/01/06 13:11:38;;;;;;;25.25;15.40;;;13.00;99.90;;;;;;6182822;23;20005;-86
2021/01/06 13:14:15;;;;;;;38.67;21.33;;;12.80;99.90;;;;;;6183147;23;19997;-88
2021/01/06 13:17:02;;;;;;;31.77;17.60;;;13.40;99.90;;;;;;6156387;23;20093;-87
2021/01/06 13:19:33;;;;;;;69.88;41.17;;;12.90;99.90;;;;;;6157080;23;20001;-87
2021/01/06 13:25:50;;;;;;;25.90;16.42;;;12.40;99.90;;;;;;6181948;22;20142;-88
2021/01/06 13:40:30;;;;;;;22.40;14.82;;;12.00;99.90;;;;;;6180200;23;20021;-92
2021/01/06 13:43:58;;;;;;;25.40;15.10;;;12.00;99.90;;;;;;6183868;23;20029;-90
2021/01/06 13:46:36;;;;;;;25.05;14.73;;;11.80;99.90;;;;;;6062873;23;20950;-90
2021/01/06 13:49:26;;;;;;;27.13;15.68;;;11.70;99.90;;;;;;6186842;23;20135;-89
2021/01/06 13:52:01;;;;;;;29.60;16.45;;;11.80;99.90;;;;;;6182517;23;20100;-88
2021/01/06 13:54:52;;;;;;;29.33;16.65;;;11.80;99.90;;;;;;6182206;23;20008;-88
2021/01/06 13:57:58;;;;;;;30.67;15.75;;;11.60;99.90;;;;;;6153048;23;20001;-88
2021/01/06 14:00:33;;;;;;;27.13;13.95;;;11.50;99.90;;;;;;6155410;23;20014;-91
2021/01/06 14:03:22;;;;;;;29.15;17.05;;;11.70;99.90;;;;;;6153154;23;20009;-89
2021/01/06 14:06:06;;;;;;;28.98;16.83;;;11.70;99.90;;;;;;6152745;23;20306;-86
2021/01/06 14:08:55;;;;;;;31.15;18.35;;;11.70;99.90;;;;;;6151767;23;20013;-86
2021/01/06 14:11:29;;;;;;;36.95;19.27;;;11.70;99.90;;;;;;6151416;23;20312;-84
2021/01/06 14:14:04;;;;;;;33.80;21.65;;;11.80;99.90;;;;;;6152892;23;20002;-86
2021/01/06 14:16:56;;;;;;;32.53;19.35;;;11.90;99.90;;;;;;6155465;23;20073;-86
2021/01/06 14:20:13;;;;;;;33.70;18.83;;;11.90;99.90;;;;;;6159555;23;20030;-91
2021/01/06 14:22:46;;;;;;;35.78;16.95;;;11.90;99.90;;;;;;6151107;23;20419;-91
2021/01/06 14:25:31;;;;;;;23.85;14.38;;;11.90;99.90;;;;;;6157868;23;20032;-87
2021/01/06 14:28:26;;;;;;;24.63;14.73;;;11.90;99.90;;;;;;6158611;23;19997;-93
2021/01/06 14:31:33;;;;;;;25.80;15.65;;;11.90;99.90;;;;;;6140983;23;20476;-92
2021/01/06 14:34:24;;;;;;;21.10;13.43;;;11.90;99.90;;;;;;6103363;23;20006;-91
2021/01/06 14:36:56;;;;;;;23.60;13.90;;;11.80;99.90;;;;;;6103667;23;20010;-88
2021/01/06 14:39:47;;;;;;;26.35;15.57;;;11.80;99.90;;;;;;6159497;23;20017;-87
2021/01/06 14:42:58;;;;;;;31.45;18.17;;;11.70;99.90;;;;;;6187337;23;20411;-88
2021/01/06 14:45:37;;;;;;;41.25;23.85;;;11.60;99.90;;;;;;6185019;23;19993;-81
2021/01/06 14:48:28;;;;;;;149.73;80.35;;;11.80;99.90;;;;;;6182428;23;20001;-84
2021/01/06 14:51:15;;;;;;;85.28;49.67;;;11.90;99.90;;;;;;6182232;23;20053;-85
2021/01/06 14:53:53;;;;;;;66.80;39.47;;;12.60;99.90;;;;;;6182160;23;19993;-84
2021/01/06 14:56:41;;;;;;;130.88;70.38;;;12.70;99.90;;;;;;6183460;23;20005;-88
2021/01/06 14:59:52;;;;;;;67.38;38.25;;;12.60;99.90;;;;;;6172759;23;20001;-88
2021/01/06 15:02:37;;;;;;;22.15;13.68;;;12.20;99.90;;;;;;6119117;23;20013;-88
2021/01/06 15:05:26;;;;;;;19.40;12.45;;;11.90;99.90;;;;;;6178985;23;20001;-86
2021/01/06 15:08:44;;;;;;;20.90;12.15;;;11.70;99.90;;;;;;6179700;23;20068;-88
2021/01/06 15:11:28;;;;;;;21.73;13.63;;;11.60;99.90;;;;;;6157025;23;19997;-87
2021/01/06 15:14:13;;;;;;;23.67;15.23;;;11.50;99.90;;;;;;6176408;23;20016;-87
2021/01/06 15:16:41;;;;;;;28.02;16.67;;;11.40;99.90;;;;;;6178650;23;20009;-83
2021/01/06 15:19:28;;;;;;;32.65;18.17;;;11.30;99.90;;;;;;6176974;23;20008;-86
2021/01/06 15:21:59;;;;;;;35.63;21.27;;;11.10;99.90;;;;;;6177457;23;20490;-86
2021/01/06 15:24:36;;;;;;;42.85;22.08;;;11.20;99.90;;;;;;6179845;23;20787;-84
2021/01/06 15:27:41;;;;;;;33.15;20.95;;;11.20;99.90;;;;;;6178336;23;20001;-84
2021/01/06 15:30:14;;;;;;;35.20;21.27;;;11.20;99.90;;;;;;6151184;23;20013;-86
2021/01/06 15:32:57;;;;;;;32.08;19.45;;;11.10;99.90;;;;;;6181517;23;20013;-89
2021/01/06 15:35:29;;;;;;;35.58;20.65;;;11.10;99.90;;;;;;6181426;23;20005;-88
2021/01/06 15:38:01;;;;;;;33.20;18.80;;;11.00;99.90;;;;;;6177506;23;20461;-87
2021/01/06 15:40:45;;;;;;;31.30;19.10;;;10.90;99.90;;;;;;6177204;23;20017;-84
2021/01/06 15:43:52;;;;;;;33.50;19.02;;;11.00;99.90;;;;;;6179094;23;20380;-83
2021/01/06 15:46:20;;;;;;;33.75;19.75;;;11.00;99.90;;;;;;6178746;23;20029;-88
2021/01/06 15:48:46;;;;;;;30.17;18.52;;;11.00;99.90;;;;;;6179556;23;20108;-87
2021/01/06 15:51:24;;;;;;;30.77;18.65;;;11.00;99.90;;;;;;6174528;23;20005;-86
2021/01/06 15:53:57;;;;;;;31.33;18.63;;;10.80;99.90;;;;;;6180090;23;20339;-86
2021/01/06 15:56:37;;;;;;;32.58;19.40;;;10.90;99.90;;;;;;6180566;23;20013;-86
2021/01/06 15:59:06;;;;;;;36.63;21.23;;;10.90;99.90;;;;;;6180866;23;20346;-86
2021/01/06 16:01:33;;;;;;;37.03;22.40;;;10.90;99.90;;;;;;6177549;23;20596;-85
2021/01/06 16:04:08;;;;;;;33.95;21.25;;;10.80;99.90;;;;;;6177621;23;20012;-85
2021/01/06 16:06:49;;;;;;;35.95;23.83;;;10.80;99.90;;;;;;6179976;23;20362;-86
2021/01/06 16:09:19;;;;;;;37.47;23.08;;;10.80;99.90;;;;;;6181479;23;20011;-84
2021/01/06 16:11:52;;;;;;;68.70;39.80;;;10.70;99.90;;;;;;6182945;23;20005;-85